createdAt,value
2022-11-13T00:00:11.026Z,54.53
2022-11-13T00:00:33.285Z,51.88
2022-11-13T00:00:56.266Z,55.13
2022-11-13T00:01:19.828Z,54.00
2022-11-13T00:01:41.707Z,58.60
2022-11-13T00:02:03.869Z,57.25
2022-11-13T00:02:25.638Z,57.92
2022-11-13T00:02:47.462Z,54.97
2022-11-13T00:03:09.349Z,55.40
2022-11-13T00:03:31.149Z,53.72
2022-11-13T00:03:52.898Z,55.08
2022-11-13T00:04:15.130Z,53.92
2022-11-13T00:04:36.853Z,55.20
2022-11-13T00:04:58.974Z,59.28
2022-11-13T00:05:21.130Z,56.85
2022-11-13T00:05:42.932Z,54.65
2022-11-13T00:06:05.316Z,54.20
2022-11-13T00:06:27.826Z,57.63
2022-11-13T00:06:52.509Z,58.83
2022-11-13T00:07:17.364Z,54.72
2022-11-13T00:07:39.546Z,56.88
2022-11-13T00:08:01.478Z,54.95
2022-11-13T00:08:23.259Z,54.30
2022-11-13T00:08:46.277Z,52.78
2022-11-13T00:09:12.437Z,53.40
2022-11-13T00:09:34.195Z,53.63
2022-11-13T00:09:55.990Z,55.28
2022-11-13T00:10:17.864Z,54.95
2022-11-13T00:10:39.786Z,55.00
2022-11-13T00:11:03.934Z,57.03
2022-11-13T00:11:25.738Z,58.75
2022-11-13T00:11:47.535Z,58.47
2022-11-13T00:12:09.401Z,57.30
2022-11-13T00:12:31.190Z,57.50
2022-11-13T00:12:54.122Z,65.15
2022-11-13T00:13:15.884Z,60.53
2022-11-13T00:13:37.713Z,56.00
2022-11-13T00:13:59.468Z,61.35
2022-11-13T00:14:21.747Z,64.90
2022-11-13T00:14:44.431Z,60.75
2022-11-13T00:15:06.935Z,61.08
2022-11-13T00:15:28.975Z,55.53
2022-11-13T00:15:57.639Z,55.55
2022-11-13T00:16:21.259Z,60.17
2022-11-13T00:16:43.371Z,60.00
2022-11-13T00:17:05.161Z,59.72
2022-11-13T00:17:28.555Z,56.70
2022-11-13T00:17:50.689Z,58.78
2022-11-13T00:18:12.422Z,53.70
2022-11-13T00:18:35.888Z,58.50
2022-11-13T00:18:57.646Z,58.20
2022-11-13T00:19:19.781Z,53.10
2022-11-13T00:19:41.544Z,59.97
2022-11-13T00:20:04.520Z,60.17
2022-11-13T00:20:26.275Z,58.80
2022-11-13T00:20:48.008Z,54.97
2022-11-13T00:21:17.085Z,55.67
2022-11-13T00:21:39.222Z,62.35
2022-11-13T00:22:01.009Z,74.10
2022-11-13T00:22:22.779Z,66.75
2022-11-13T00:22:44.977Z,58.42
2022-11-13T00:23:06.720Z,58.22
2022-11-13T00:23:28.484Z,57.67
2022-11-13T00:23:52.172Z,57.05
2022-11-13T00:24:13.886Z,64.55
2022-11-13T00:24:35.648Z,59.78
2022-11-13T00:24:57.820Z,60.75
2022-11-13T00:25:19.574Z,58.50
2022-11-13T00:25:41.313Z,57.20
2022-11-13T00:26:15.902Z,55.38
2022-11-13T00:26:39.651Z,58.80
2022-11-13T00:27:01.375Z,60.17
2022-11-13T00:27:23.114Z,67.68
2022-11-13T00:27:44.854Z,63.92
2022-11-13T00:28:06.619Z,68.63
2022-11-13T00:28:29.095Z,67.43
2022-11-13T00:28:56.262Z,63.10
2022-11-13T00:29:18.143Z,59.47
2022-11-13T00:29:40.727Z,59.58
2022-11-13T00:30:02.646Z,61.55
2022-11-13T00:30:24.767Z,63.67
2022-11-13T00:30:46.721Z,62.30
2022-11-13T00:31:09.769Z,61.15
2022-11-13T00:31:32.054Z,59.92
2022-11-13T00:31:53.787Z,59.95
2022-11-13T00:32:15.554Z,64.00
2022-11-13T00:32:37.956Z,62.88
2022-11-13T00:33:00.099Z,60.60
2022-11-13T00:33:45.188Z,60.67
2022-11-13T00:34:33.209Z,60.38
2022-11-13T00:34:49.558Z,75.03
2022-11-13T00:35:11.327Z,80.70
2022-11-13T00:35:33.884Z,66.05
2022-11-13T00:36:12.814Z,66.10
2022-11-13T00:36:34.985Z,62.33
2022-11-13T00:36:57.269Z,60.22
2022-11-13T00:37:19.162Z,63.63
2022-11-13T00:37:40.964Z,66.05
2022-11-13T00:38:03.107Z,62.67
2022-11-13T00:38:25.441Z,61.63
2022-11-13T00:38:47.438Z,64.72
2022-11-13T00:39:09.852Z,66.38
2022-11-13T00:39:31.613Z,61.53
2022-11-13T00:39:58.431Z,64.45
2022-11-13T00:40:21.339Z,67.13
2022-11-13T00:40:43.379Z,62.80
2022-11-13T00:41:05.235Z,61.83
2022-11-13T00:41:29.710Z,63.20
2022-11-13T00:41:51.424Z,67.63
2022-11-13T00:42:13.188Z,65.47
2022-11-13T00:42:36.621Z,65.93
2022-11-13T00:43:00.225Z,62.67
2022-11-13T00:43:22.231Z,61.50
2022-11-13T00:43:44.263Z,64.18
2022-11-13T00:44:06.150Z,67.43
2022-11-13T00:44:27.874Z,64.97
2022-11-13T00:44:49.742Z,62.72
2022-11-13T00:45:11.562Z,61.63
2022-11-13T00:45:33.318Z,65.43
2022-11-13T00:45:55.497Z,64.50
2022-11-13T00:46:17.302Z,64.13
2022-11-13T00:46:39.442Z,70.18
2022-11-13T00:47:01.241Z,65.55
2022-11-13T00:47:23.014Z,70.78
2022-11-13T00:47:44.770Z,72.68
2022-11-13T00:48:06.658Z,71.30
2022-11-13T00:48:29.050Z,68.45
2022-11-13T00:48:51.161Z,64.10
2022-11-13T00:49:13.315Z,66.55
2022-11-13T00:49:35.536Z,70.32
2022-11-13T00:49:57.667Z,66.72
2022-11-13T00:50:19.543Z,64.70
2022-11-13T00:50:41.360Z,67.30
2022-11-13T00:51:04.079Z,68.75
2022-11-13T00:51:25.957Z,70.40
2022-11-13T00:51:48.150Z,68.20
2022-11-13T00:52:10.003Z,69.13
2022-11-13T00:52:31.792Z,69.97
2022-11-13T00:52:53.576Z,73.68
2022-11-13T00:53:18.247Z,68.68
2022-11-13T00:53:40.201Z,70.35
2022-11-13T00:54:02.078Z,72.95
2022-11-13T00:54:23.817Z,69.40
2022-11-13T00:54:45.951Z,73.45
2022-11-13T00:55:07.867Z,67.85
2022-11-13T00:55:30.319Z,67.50
2022-11-13T00:55:52.291Z,67.13
2022-11-13T00:56:14.144Z,69.22
2022-11-13T00:56:35.897Z,67.57
2022-11-13T00:56:57.714Z,72.85
2022-11-13T00:57:19.877Z,69.03
2022-11-13T00:57:41.837Z,70.95
2022-11-13T00:58:04.905Z,70.45
2022-11-13T00:58:27.629Z,75.33
2022-11-13T00:58:49.814Z,74.05
2022-11-13T00:59:11.912Z,73.45
2022-11-13T00:59:34.123Z,72.75
2022-11-13T00:59:55.839Z,73.97
2022-11-13T01:00:18.054Z,75.45
2022-11-13T01:00:40.661Z,72.55
2022-11-13T01:01:11.935Z,72.43
2022-11-13T01:01:33.888Z,72.63
2022-11-13T01:01:55.740Z,70.80
2022-11-13T01:02:17.550Z,75.00
2022-11-13T01:02:39.307Z,76.90
2022-11-13T01:03:01.176Z,79.60
2022-11-13T01:03:23.016Z,74.63
2022-11-13T01:03:45.055Z,74.53
2022-11-13T01:04:06.826Z,71.20
2022-11-13T01:04:29.392Z,74.35
2022-11-13T01:04:51.526Z,76.10
2022-11-13T01:05:13.421Z,78.13
2022-11-13T01:05:42.712Z,77.97
2022-11-13T01:06:11.762Z,73.53
2022-11-13T01:06:33.555Z,74.97
2022-11-13T01:06:55.711Z,74.30
2022-11-13T01:07:17.646Z,76.00
2022-11-13T01:07:39.462Z,76.87
2022-11-13T01:08:01.623Z,75.70
2022-11-13T01:08:23.392Z,79.28
2022-11-13T01:08:45.725Z,75.60
2022-11-13T01:09:07.493Z,77.13
2022-11-13T01:09:29.647Z,79.18
2022-11-13T01:09:51.993Z,77.25
2022-11-13T01:10:13.923Z,84.63
2022-11-13T01:10:44.818Z,79.35
2022-11-13T01:11:11.234Z,75.68
2022-11-13T01:11:33.472Z,79.15
2022-11-13T01:11:55.615Z,83.82
2022-11-13T01:12:17.463Z,79.70
2022-11-13T01:12:39.206Z,81.57
2022-11-13T01:13:01.224Z,82.70
2022-11-13T01:13:22.986Z,74.70
2022-11-13T01:13:46.924Z,76.53
2022-11-13T01:14:09.348Z,82.90
2022-11-13T01:14:31.178Z,78.65
2022-11-13T01:14:53.040Z,76.13
2022-11-13T01:15:15.192Z,75.95
2022-11-13T01:15:40.189Z,80.88
2022-11-13T01:16:06.446Z,74.88
2022-11-13T01:16:29.013Z,74.53
2022-11-13T01:16:51.160Z,76.55
2022-11-13T01:17:12.965Z,78.88
2022-11-13T01:17:35.029Z,75.10
2022-11-13T01:17:56.861Z,78.43
2022-11-13T01:18:18.720Z,80.55
2022-11-13T01:18:43.937Z,79.28
2022-11-13T01:19:05.691Z,79.07
2022-11-13T01:19:27.871Z,81.93
2022-11-13T01:19:49.991Z,80.10
2022-11-13T01:20:12.142Z,77.70
2022-11-13T01:20:34.355Z,75.53
2022-11-13T01:21:06.674Z,76.32
2022-11-13T01:21:28.824Z,75.57
2022-11-13T01:21:50.956Z,73.43
2022-11-13T01:22:12.722Z,80.18
2022-11-13T01:22:34.456Z,75.35
2022-11-13T01:22:56.582Z,78.72
2022-11-13T01:23:18.309Z,78.60
2022-11-13T01:23:40.427Z,81.70
2022-11-13T01:24:02.266Z,78.15
2022-11-13T01:24:24.085Z,75.72
2022-11-13T01:24:45.873Z,74.75
2022-11-13T01:25:07.929Z,76.07
2022-11-13T01:25:30.501Z,75.97
2022-11-13T01:25:52.304Z,78.65
2022-11-13T01:26:14.396Z,76.32
2022-11-13T01:26:36.169Z,74.15
2022-11-13T01:26:57.893Z,77.53
2022-11-13T01:27:20.015Z,75.00
2022-11-13T01:27:42.233Z,78.38
2022-11-13T01:28:04.208Z,82.77
2022-11-13T01:28:26.227Z,80.60
2022-11-13T01:28:49.254Z,78.72
2022-11-13T01:29:12.601Z,74.70
2022-11-13T01:29:34.801Z,77.20
2022-11-13T01:29:56.536Z,79.78
2022-11-13T01:30:18.761Z,76.43
2022-11-13T01:30:40.897Z,76.82
2022-11-13T01:31:08.766Z,80.30
2022-11-13T01:31:31.519Z,78.75
2022-11-13T01:31:53.246Z,77.72
2022-11-13T01:32:14.972Z,79.07
2022-11-13T01:32:37.005Z,76.18
2022-11-13T01:32:58.785Z,76.78
2022-11-13T01:33:20.904Z,75.20
2022-11-13T01:33:44.016Z,79.57
2022-11-13T01:34:06.226Z,82.13
2022-11-13T01:34:27.946Z,82.82
2022-11-13T01:34:49.708Z,77.07
2022-11-13T01:35:11.448Z,80.55
2022-11-13T01:35:33.180Z,78.75
2022-11-13T01:36:00.958Z,77.97
2022-11-13T01:36:24.918Z,79.15
2022-11-13T01:36:47.013Z,84.22
2022-11-13T01:37:09.215Z,76.00
2022-11-13T01:37:30.948Z,80.50
2022-11-13T01:37:53.069Z,81.90
2022-11-13T01:38:14.888Z,81.22
2022-11-13T01:38:37.627Z,77.18
2022-11-13T01:39:00.041Z,78.55
2022-11-13T01:39:22.184Z,79.13
2022-11-13T01:39:44.313Z,73.63
2022-11-13T01:40:06.601Z,71.22
2022-11-13T01:40:28.367Z,77.55
2022-11-13T01:40:50.085Z,76.20
2022-11-13T01:41:27.739Z,73.63
2022-11-13T01:41:49.502Z,80.15
2022-11-13T01:42:11.340Z,77.40
2022-11-13T01:42:33.959Z,79.80
2022-11-13T01:42:55.733Z,76.57
2022-11-13T01:43:25.217Z,77.50
2022-11-13T01:43:47.262Z,76.88
2022-11-13T01:44:16.236Z,79.25
2022-11-13T01:44:47.069Z,76.47
2022-11-13T01:45:46.287Z,75.60
2022-11-13T01:46:24.851Z,78.47
2022-11-13T01:46:51.518Z,77.43
2022-11-13T01:47:13.464Z,76.57
2022-11-13T01:47:36.085Z,78.13
2022-11-13T01:47:57.859Z,82.05
2022-11-13T01:48:20.040Z,77.20
2022-11-13T01:48:56.102Z,78.10
2022-11-13T01:49:26.506Z,76.85
2022-11-13T01:49:49.498Z,75.68
2022-11-13T01:50:14.978Z,76.70
2022-11-13T01:50:37.222Z,75.18
2022-11-13T01:50:59.501Z,75.53
2022-11-13T01:51:50.163Z,81.55
2022-11-13T01:52:20.455Z,78.93
2022-11-13T01:52:42.926Z,78.70
2022-11-13T01:53:05.161Z,76.35
2022-11-13T01:53:27.873Z,75.18
2022-11-13T01:53:49.694Z,74.15
2022-11-13T01:54:15.893Z,75.80
2022-11-13T01:54:41.567Z,77.82
2022-11-13T01:55:14.021Z,78.13
2022-11-13T01:55:36.170Z,79.05
2022-11-13T01:55:58.047Z,78.55
2022-11-13T01:56:20.286Z,74.57
2022-11-13T01:56:42.200Z,77.22
2022-11-13T01:57:04.544Z,81.28
2022-11-13T01:57:26.503Z,83.68
2022-11-13T01:57:48.475Z,75.68
2022-11-13T01:58:11.464Z,72.63
2022-11-13T01:58:33.613Z,73.72
2022-11-13T01:59:04.470Z,77.38
2022-11-13T01:59:27.991Z,75.78
2022-11-13T01:59:58.591Z,75.00
2022-11-13T02:00:20.565Z,74.65
2022-11-13T02:00:42.727Z,73.60
2022-11-13T02:01:04.493Z,78.72
2022-11-13T02:01:26.729Z,75.40
2022-11-13T02:01:49.195Z,72.30
2022-11-13T02:02:11.047Z,69.97
2022-11-13T02:02:33.030Z,70.18
2022-11-13T02:02:54.886Z,73.35
2022-11-13T02:03:16.741Z,74.80
2022-11-13T02:03:38.764Z,73.30
2022-11-13T02:04:00.982Z,71.07
2022-11-13T02:04:23.605Z,73.30
2022-11-13T02:04:46.402Z,74.88
2022-11-13T02:05:09.245Z,71.13
2022-11-13T02:05:31.184Z,70.80
2022-11-13T02:05:54.593Z,74.25
2022-11-13T02:06:17.097Z,69.75
2022-11-13T02:06:52.091Z,68.97
2022-11-13T02:07:16.663Z,72.57
2022-11-13T02:07:38.971Z,70.88
2022-11-13T02:08:01.244Z,67.15
2022-11-13T02:08:23.430Z,71.18
2022-11-13T02:08:45.535Z,66.68
2022-11-13T02:09:08.282Z,69.03
2022-11-13T02:09:36.513Z,67.88
2022-11-13T02:09:58.913Z,67.03
2022-11-13T02:10:21.108Z,69.32
2022-11-13T02:10:43.492Z,66.53
2022-11-13T02:11:05.370Z,69.88
2022-11-13T02:11:27.390Z,73.38
2022-11-13T02:11:49.469Z,67.35
2022-11-13T02:12:14.090Z,66.70
2022-11-13T02:12:40.818Z,64.53
2022-11-13T02:13:03.212Z,65.75
2022-11-13T02:13:25.854Z,71.35
2022-11-13T02:13:48.142Z,67.40
2022-11-13T02:14:11.287Z,68.50
2022-11-13T02:14:34.742Z,67.38
2022-11-13T02:14:59.795Z,68.32
2022-11-13T02:15:25.251Z,67.95
2022-11-13T02:15:48.834Z,68.45
2022-11-13T02:16:11.382Z,67.00
2022-11-13T02:16:34.631Z,65.30
2022-11-13T02:17:00.743Z,67.68
2022-11-13T02:17:31.075Z,66.20
2022-11-13T02:17:56.655Z,66.20
2022-11-13T02:18:21.091Z,66.93
2022-11-13T02:18:43.381Z,65.20
2022-11-13T02:19:13.258Z,67.07
2022-11-13T02:19:37.571Z,68.18
2022-11-13T02:20:02.227Z,70.78
2022-11-13T02:20:46.060Z,67.75
2022-11-13T02:21:07.747Z,66.30
2022-11-13T02:21:45.216Z,64.30
2022-11-13T02:22:46.704Z,69.00
2022-11-13T02:23:24.912Z,64.10
2022-11-13T02:23:51.524Z,69.25
2022-11-13T02:24:16.786Z,67.53
2022-11-13T02:24:45.287Z,65.43
2022-11-13T02:25:10.281Z,69.93
2022-11-13T02:25:33.293Z,67.80
2022-11-13T02:25:55.210Z,67.38
2022-11-13T02:26:23.919Z,68.10
2022-11-13T02:26:45.787Z,65.15
2022-11-13T02:27:13.066Z,68.05
2022-11-13T02:27:37.607Z,71.60
2022-11-13T02:28:00.079Z,65.90
2022-11-13T02:28:22.388Z,65.40
2022-11-13T02:28:44.147Z,67.47
2022-11-13T02:29:06.278Z,69.18
2022-11-13T02:29:28.041Z,65.82
2022-11-13T02:29:49.868Z,66.25
2022-11-13T02:30:20.961Z,67.32
2022-11-13T02:30:55.861Z,64.55
2022-11-13T02:31:17.987Z,66.18
2022-11-13T02:31:40.133Z,67.35
2022-11-13T02:32:01.989Z,66.40
2022-11-13T02:32:23.766Z,65.30
2022-11-13T02:32:47.627Z,62.30
2022-11-13T02:33:30.033Z,65.63
2022-11-13T02:33:52.176Z,63.53
2022-11-13T02:34:14.325Z,63.25
2022-11-13T02:34:36.084Z,62.55
2022-11-13T02:34:58.213Z,61.70
2022-11-13T02:35:26.755Z,62.10
2022-11-13T02:35:48.559Z,66.90
2022-11-13T02:36:11.628Z,63.13
2022-11-13T02:36:34.208Z,64.30
2022-11-13T02:36:56.041Z,63.72
2022-11-13T02:37:17.815Z,58.97
2022-11-13T02:37:39.600Z,61.03
2022-11-13T02:38:03.032Z,58.75
2022-11-13T02:38:25.004Z,58.10
2022-11-13T02:38:47.874Z,62.33
2022-11-13T02:39:11.432Z,61.58
2022-11-13T02:39:33.588Z,61.30
2022-11-13T02:39:55.717Z,63.42
2022-11-13T02:40:18.401Z,58.33
2022-11-13T02:40:40.161Z,58.13
2022-11-13T02:41:01.943Z,59.65
2022-11-13T02:41:23.689Z,58.00
2022-11-13T02:41:45.840Z,62.28
2022-11-13T02:42:08.047Z,60.72
2022-11-13T02:42:29.754Z,59.95
2022-11-13T02:42:51.872Z,59.65
2022-11-13T02:43:14.027Z,57.95
2022-11-13T02:43:36.157Z,62.03
2022-11-13T02:43:58.050Z,63.67
2022-11-13T02:44:19.887Z,59.45
2022-11-13T02:44:41.644Z,61.35
2022-11-13T02:45:04.102Z,61.55
2022-11-13T02:45:25.883Z,59.15
2022-11-13T02:45:47.650Z,55.17
2022-11-13T02:46:09.440Z,61.95
2022-11-13T02:46:31.544Z,60.00
2022-11-13T02:46:53.303Z,58.72
2022-11-13T02:47:15.410Z,65.93
2022-11-13T02:47:37.258Z,59.50
2022-11-13T02:48:01.731Z,60.17
2022-11-13T02:48:23.479Z,60.50
2022-11-13T02:48:45.224Z,58.00
2022-11-13T02:49:07.693Z,59.95
2022-11-13T02:49:29.803Z,59.05
2022-11-13T02:49:51.516Z,54.60
2022-11-13T02:50:13.579Z,55.45
2022-11-13T02:50:37.433Z,61.45
2022-11-13T02:50:59.592Z,62.70
2022-11-13T02:51:21.385Z,59.35
2022-11-13T02:51:43.564Z,62.63
2022-11-13T02:52:05.357Z,57.38
2022-11-13T02:52:27.372Z,56.28
2022-11-13T02:52:49.190Z,59.28
2022-11-13T02:53:11.016Z,61.97
2022-11-13T02:53:33.192Z,58.97
2022-11-13T02:53:55.566Z,59.67
2022-11-13T02:54:17.713Z,61.55
2022-11-13T02:54:39.615Z,57.45
2022-11-13T02:55:01.399Z,57.55
2022-11-13T02:55:23.426Z,62.28
2022-11-13T02:55:45.537Z,61.05
2022-11-13T02:56:07.862Z,60.67
2022-11-13T02:56:30.020Z,60.22
2022-11-13T02:56:51.798Z,61.78
2022-11-13T02:57:13.535Z,61.83
2022-11-13T02:57:35.327Z,61.50
2022-11-13T02:57:57.083Z,61.15
2022-11-13T02:58:18.910Z,65.65
2022-11-13T02:58:40.667Z,63.15
2022-11-13T02:59:02.454Z,64.63
2022-11-13T02:59:24.167Z,64.88
2022-11-13T02:59:45.923Z,63.45
2022-11-13T03:00:13.561Z,62.05
2022-11-13T03:00:36.319Z,61.92
2022-11-13T03:00:58.076Z,57.20
2022-11-13T03:01:20.285Z,62.67
2022-11-13T03:01:42.124Z,65.57
2022-11-13T03:02:04.069Z,63.33
2022-11-13T03:02:25.859Z,63.92
2022-11-13T03:02:47.743Z,64.47
2022-11-13T03:03:09.544Z,67.63
2022-11-13T03:03:56.538Z,65.38
2022-11-13T03:04:13.444Z,64.18
2022-11-13T03:05:05.318Z,64.47
2022-11-13T03:05:17.119Z,66.78
2022-11-13T03:05:38.874Z,66.03
2022-11-13T03:06:00.716Z,65.57
2022-11-13T03:06:22.476Z,64.95
2022-11-13T03:06:44.275Z,63.15
2022-11-13T03:07:06.120Z,64.95
2022-11-13T03:07:28.260Z,64.50
2022-11-13T03:07:50.046Z,65.63
2022-11-13T03:08:12.157Z,70.20
2022-11-13T03:08:34.838Z,64.80
2022-11-13T03:08:57.195Z,65.97
2022-11-13T03:09:19.451Z,69.13
2022-11-13T03:09:42.109Z,69.28
2022-11-13T03:10:04.529Z,73.30
2022-11-13T03:10:26.283Z,67.68
2022-11-13T03:10:48.032Z,65.20
2022-11-13T03:11:10.916Z,63.85
2022-11-13T03:11:32.662Z,63.42
2022-11-13T03:11:54.484Z,67.95
2022-11-13T03:12:16.646Z,66.85
2022-11-13T03:12:39.181Z,63.80
2022-11-13T03:13:00.935Z,68.10
2022-11-13T03:13:22.758Z,65.95
2022-11-13T03:13:44.544Z,66.78
2022-11-13T03:14:06.514Z,70.25
2022-11-13T03:14:28.291Z,71.22
2022-11-13T03:14:50.030Z,66.72
2022-11-13T03:15:12.483Z,69.43
2022-11-13T03:15:34.998Z,66.95
2022-11-13T03:15:57.127Z,63.75
2022-11-13T03:16:18.930Z,62.90
2022-11-13T03:16:40.642Z,68.43
2022-11-13T03:17:02.755Z,67.97
2022-11-13T03:17:24.576Z,64.20
2022-11-13T03:17:46.287Z,68.15
2022-11-13T03:18:08.891Z,69.10
2022-11-13T03:18:30.912Z,69.10
2022-11-13T03:18:52.685Z,70.38
2022-11-13T03:19:15.071Z,66.18
2022-11-13T03:19:36.993Z,64.22
2022-11-13T03:19:59.516Z,64.38
2022-11-13T03:20:21.309Z,66.85
2022-11-13T03:20:44.045Z,67.30
2022-11-13T03:21:11.066Z,70.82
2022-11-13T03:21:32.882Z,64.40
2022-11-13T03:21:55.007Z,62.28
2022-11-13T03:22:16.738Z,64.60
2022-11-13T03:22:38.863Z,64.53
2022-11-13T03:23:00.613Z,64.38
2022-11-13T03:23:22.361Z,63.80
2022-11-13T03:23:47.121Z,59.00
2022-11-13T03:24:08.883Z,63.28
2022-11-13T03:24:31.058Z,63.53
2022-11-13T03:24:52.818Z,65.88
2022-11-13T03:25:14.716Z,63.75
2022-11-13T03:25:36.438Z,63.47
2022-11-13T03:26:06.222Z,59.88
2022-11-13T03:26:28.368Z,60.53
2022-11-13T03:26:50.491Z,58.83
2022-11-13T03:27:12.606Z,60.83
2022-11-13T03:27:34.371Z,57.10
2022-11-13T03:27:56.161Z,57.40
2022-11-13T03:28:17.911Z,60.95
2022-11-13T03:28:39.652Z,62.50
2022-11-13T03:29:01.372Z,63.90
2022-11-13T03:29:23.146Z,65.38
2022-11-13T03:29:44.850Z,63.38
2022-11-13T03:30:07.341Z,64.55
2022-11-13T03:30:29.097Z,61.28
2022-11-13T03:30:50.827Z,63.88
2022-11-13T03:31:12.934Z,59.10
2022-11-13T03:31:34.666Z,66.07
2022-11-13T03:31:56.888Z,60.05
2022-11-13T03:32:18.871Z,58.95
2022-11-13T03:32:40.675Z,62.55
2022-11-13T03:33:02.440Z,62.15
2022-11-13T03:33:25.386Z,59.10
2022-11-13T03:33:47.436Z,63.70
2022-11-13T03:34:09.664Z,62.28
2022-11-13T03:34:31.468Z,59.58
2022-11-13T03:34:53.372Z,58.70
2022-11-13T03:35:15.137Z,58.28
2022-11-13T03:35:44.214Z,58.50
2022-11-13T03:36:08.758Z,59.00
2022-11-13T03:36:30.520Z,57.75
2022-11-13T03:36:52.272Z,64.57
2022-11-13T03:37:14.428Z,59.47
2022-11-13T03:37:36.596Z,55.80
2022-11-13T03:37:58.320Z,54.70
2022-11-13T03:38:20.114Z,57.83
2022-11-13T03:38:41.857Z,57.33
2022-11-13T03:39:03.998Z,57.47
2022-11-13T03:39:25.842Z,56.47
2022-11-13T03:39:47.613Z,58.15
2022-11-13T03:40:09.740Z,55.05
2022-11-13T03:40:31.445Z,52.13
2022-11-13T03:40:53.609Z,53.72
2022-11-13T03:41:15.424Z,56.72
2022-11-13T03:41:37.170Z,60.58
2022-11-13T03:41:59.326Z,61.88
2022-11-13T03:42:21.040Z,62.55
2022-11-13T03:42:42.873Z,55.45
2022-11-13T03:43:04.603Z,58.28
2022-11-13T03:43:26.791Z,59.17
2022-11-13T03:43:48.577Z,57.60
2022-11-13T03:44:10.336Z,54.28
2022-11-13T03:44:32.082Z,59.05
2022-11-13T03:44:53.929Z,55.72
2022-11-13T03:45:15.774Z,58.95
2022-11-13T03:45:37.559Z,57.45
2022-11-13T03:45:59.342Z,60.75
2022-11-13T03:46:21.537Z,55.90
2022-11-13T03:46:43.309Z,56.67
2022-11-13T03:47:05.069Z,54.00
2022-11-13T03:47:26.833Z,56.67
2022-11-13T03:47:49.410Z,55.03
2022-11-13T03:48:11.327Z,55.65
2022-11-13T03:48:33.517Z,53.85
2022-11-13T03:48:55.360Z,56.28
2022-11-13T03:49:17.094Z,56.60
2022-11-13T03:49:39.247Z,58.83
2022-11-13T03:50:01.356Z,54.95
2022-11-13T03:50:23.453Z,60.10
2022-11-13T03:50:50.721Z,60.38
2022-11-13T03:51:12.539Z,57.75
2022-11-13T03:51:34.691Z,58.20
2022-11-13T03:51:56.807Z,58.08
2022-11-13T03:52:19.181Z,56.88
2022-11-13T03:52:40.909Z,59.20
2022-11-13T03:53:03.059Z,53.33
2022-11-13T03:53:24.924Z,55.97
2022-11-13T03:53:46.675Z,60.38
2022-11-13T03:54:08.454Z,56.78
2022-11-13T03:54:30.242Z,55.47
2022-11-13T03:54:52.051Z,56.35
2022-11-13T03:55:13.816Z,54.33
2022-11-13T03:55:35.631Z,54.97
2022-11-13T03:55:57.867Z,56.80
2022-11-13T03:56:19.639Z,58.97
2022-11-13T03:56:41.383Z,59.53
2022-11-13T03:57:03.274Z,59.63
2022-11-13T03:57:25.038Z,55.33
2022-11-13T03:57:49.671Z,56.17
2022-11-13T03:58:11.661Z,60.15
2022-11-13T03:58:35.405Z,57.55
2022-11-13T03:59:00.291Z,60.25
2022-11-13T03:59:22.417Z,56.97
2022-11-13T03:59:44.215Z,55.97
2022-11-13T04:00:07.097Z,58.28
2022-11-13T04:00:30.237Z,57.22
2022-11-13T04:00:54.406Z,59.53
2022-11-13T04:01:16.641Z,54.28
2022-11-13T04:01:38.848Z,57.28
2022-11-13T04:02:00.640Z,56.47
2022-11-13T04:02:22.450Z,57.85
2022-11-13T04:02:44.256Z,56.88
2022-11-13T04:03:06.011Z,57.67
2022-11-13T04:03:27.821Z,58.53
2022-11-13T04:03:49.584Z,53.88
2022-11-13T04:04:11.502Z,56.72
2022-11-13T04:04:33.668Z,57.47
2022-11-13T04:04:55.828Z,57.40
2022-11-13T04:05:22.627Z,53.17
2022-11-13T04:05:44.831Z,60.92
2022-11-13T04:06:06.683Z,60.45
2022-11-13T04:06:28.401Z,58.63
2022-11-13T04:06:50.184Z,56.40
2022-11-13T04:07:11.963Z,59.78
2022-11-13T04:07:33.742Z,62.28
2022-11-13T04:07:55.582Z,59.95
2022-11-13T04:08:18.369Z,58.72
2022-11-13T04:08:40.604Z,59.58
2022-11-13T04:09:02.388Z,60.40
2022-11-13T04:09:25.037Z,64.10
2022-11-13T04:09:46.823Z,59.08
2022-11-13T04:10:08.910Z,53.95
2022-11-13T04:10:31.083Z,57.80
2022-11-13T04:10:52.832Z,62.95
2022-11-13T04:11:14.603Z,62.55
2022-11-13T04:11:36.361Z,59.13
2022-11-13T04:11:58.107Z,60.65
2022-11-13T04:12:19.859Z,56.40
2022-11-13T04:12:41.692Z,57.97
2022-11-13T04:13:03.496Z,61.08
2022-11-13T04:13:25.302Z,61.13
2022-11-13T04:13:47.133Z,61.15
2022-11-13T04:14:08.901Z,59.40
2022-11-13T04:14:31.057Z,58.85
2022-11-13T04:14:52.794Z,60.88
2022-11-13T04:15:14.658Z,62.47
2022-11-13T04:15:36.430Z,60.83
2022-11-13T04:15:58.153Z,63.17
2022-11-13T04:16:19.905Z,61.95
2022-11-13T04:16:42.080Z,62.30
2022-11-13T04:17:03.938Z,63.25
2022-11-13T04:17:25.673Z,59.00
2022-11-13T04:17:48.127Z,59.83
2022-11-13T04:18:09.893Z,62.88
2022-11-13T04:18:32.334Z,60.67
2022-11-13T04:18:54.761Z,60.17
2022-11-13T04:19:16.900Z,59.88
2022-11-13T04:19:39.071Z,59.10
2022-11-13T04:20:00.839Z,65.50
2022-11-13T04:20:23.095Z,62.30
2022-11-13T04:20:45.226Z,62.30
2022-11-13T04:21:07.026Z,59.60
2022-11-13T04:21:29.313Z,60.40
2022-11-13T04:21:51.027Z,64.80
2022-11-13T04:22:13.441Z,60.92
2022-11-13T04:22:35.185Z,63.83
2022-11-13T04:22:57.641Z,64.05
2022-11-13T04:23:19.381Z,62.60
2022-11-13T04:23:41.562Z,71.82
2022-11-13T04:24:03.577Z,70.40
2022-11-13T04:24:25.753Z,60.92
2022-11-13T04:24:47.464Z,62.40
2022-11-13T04:25:09.453Z,65.63
2022-11-13T04:25:31.219Z,64.50
2022-11-13T04:25:52.999Z,63.25
2022-11-13T04:26:14.763Z,61.77
2022-11-13T04:26:36.509Z,65.03
2022-11-13T04:26:58.697Z,62.20
2022-11-13T04:27:20.793Z,63.33
2022-11-13T04:27:42.615Z,60.65
2022-11-13T04:28:04.473Z,59.40
2022-11-13T04:28:26.494Z,60.40
2022-11-13T04:28:48.604Z,59.67
2022-11-13T04:29:10.391Z,57.75
2022-11-13T04:29:32.095Z,60.05
2022-11-13T04:29:53.909Z,59.30
2022-11-13T04:30:15.769Z,59.67
2022-11-13T04:30:37.989Z,60.67
2022-11-13T04:31:00.145Z,60.83
2022-11-13T04:31:21.944Z,62.35
2022-11-13T04:31:43.652Z,60.92
2022-11-13T04:32:05.733Z,59.33
2022-11-13T04:32:27.459Z,63.05
2022-11-13T04:32:49.566Z,54.08
2022-11-13T04:33:11.340Z,56.38
2022-11-13T04:33:33.125Z,58.65
2022-11-13T04:33:54.919Z,59.38
2022-11-13T04:34:17.103Z,62.20
2022-11-13T04:34:38.845Z,58.65
2022-11-13T04:35:01.020Z,56.72
2022-11-13T04:35:22.769Z,55.90
2022-11-13T04:35:45.922Z,58.00
2022-11-13T04:36:08.012Z,56.80
2022-11-13T04:36:29.797Z,53.30
2022-11-13T04:36:51.493Z,54.15
2022-11-13T04:37:13.603Z,55.55
2022-11-13T04:37:35.744Z,54.78
2022-11-13T04:37:57.446Z,54.80
2022-11-13T04:38:19.259Z,58.15
2022-11-13T04:38:41.009Z,56.83
2022-11-13T04:39:02.884Z,56.05
2022-11-13T04:39:24.726Z,56.33
2022-11-13T04:39:46.857Z,56.63
2022-11-13T04:40:09.531Z,55.65
2022-11-13T04:40:31.689Z,56.30
2022-11-13T04:41:13.377Z,64.35
2022-11-13T04:41:55.522Z,62.90
2022-11-13T04:42:36.448Z,59.90
2022-11-13T04:42:58.199Z,55.17
2022-11-13T04:43:20.361Z,52.47
2022-11-13T04:43:42.133Z,58.00
2022-11-13T04:44:03.920Z,55.92
2022-11-13T04:44:25.705Z,54.97
2022-11-13T04:44:47.444Z,55.47
2022-11-13T04:45:09.760Z,57.50
2022-11-13T04:45:32.025Z,57.42
2022-11-13T04:45:54.130Z,53.70
2022-11-13T04:46:15.936Z,57.38
2022-11-13T04:46:38.034Z,55.95
2022-11-13T04:46:59.810Z,53.88
2022-11-13T04:47:21.608Z,54.00
2022-11-13T04:47:44.393Z,55.00
2022-11-13T04:48:06.208Z,56.30
2022-11-13T04:48:28.193Z,58.42
2022-11-13T04:48:50.169Z,54.95
2022-11-13T04:49:12.304Z,55.90
2022-11-13T04:49:34.169Z,53.92
2022-11-13T04:49:55.935Z,54.55
2022-11-13T04:50:17.835Z,54.65
2022-11-13T04:50:39.949Z,55.58
2022-11-13T04:51:01.724Z,54.35
2022-11-13T04:51:23.532Z,56.25
2022-11-13T04:51:45.658Z,52.33
2022-11-13T04:52:07.492Z,53.65
2022-11-13T04:52:29.269Z,52.40
2022-11-13T04:52:51.127Z,58.45
2022-11-13T04:53:12.844Z,56.00
2022-11-13T04:53:34.785Z,57.05
2022-11-13T04:53:56.739Z,58.50
2022-11-13T04:54:18.512Z,54.47
2022-11-13T04:54:40.644Z,57.22
2022-11-13T04:55:02.785Z,57.83
2022-11-13T04:55:24.673Z,52.95
2022-11-13T04:55:46.519Z,56.78
2022-11-13T04:56:08.275Z,57.45
2022-11-13T04:56:30.414Z,54.92
2022-11-13T04:56:52.285Z,58.70